sensor_id;sensor_type;location;lat;lon;timestamp;pressure;altitude;pressure_sealevel;temperature;humidity
34177;BME280;20450;49.074;9.158;2024-03-06T00:00:27;99849.97;;;8.41;83.95
34177;BME280;20450;49.074;9.158;2024-03-06T00:02:54;99855.31;;;8.35;83.49
34177;BME280;20450;49.074;9.158;2024-03-06T00:05:21;99859.47;;;8.37;83.41
34177;BME280;20450;49.074;9.158;2024-03-06T00:07:51;99857.38;;;8.33;83.64
34177;BME280;20450;49.074;9.158;2024-03-06T00:10:18;99856.09;;;8.29;84.62
34177;BME280;20450;49.074;9.158;2024-03-06T00:12:45;99857.63;;;8.38;84.82
34177;BME280;20450;49.074;9.158;2024-03-06T00:15:12;99853.69;;;8.40;84.88
34177;BME280;20450;49.074;9.158;2024-03-06T00:17:39;99851.00;;;8.40;84.64
34177;BME280;20450;49.074;9.158;2024-03-06T00:20:07;99852.81;;;8.33;84.88
34177;BME280;20450;49.074;9.158;2024-03-06T00:22:34;99857.56;;;8.31;84.90
34177;BME280;20450;49.074;9.158;2024-03-06T00:25:03;99855.94;;;8.37;84.52
34177;BME280;20450;49.074;9.158;2024-03-06T00:27:31;99860.50;;;8.36;84.30
34177;BME280;20450;49.074;9.158;2024-03-06T00:29:57;99851.19;;;8.39;84.07
34177;BME280;20450;49.074;9.158;2024-03-06T00:32:25;99864.88;;;8.44;84.08
34177;BME280;20450;49.074;9.158;2024-03-06T00:34:52;99857.47;;;8.46;84.13
34177;BME280;20450;49.074;9.158;2024-03-06T00:37:19;99852.72;;;8.48;83.79
34177;BME280;20450;49.074;9.158;2024-03-06T00:39:46;99868.22;;;8.46;83.85
34177;BME280;20450;49.074;9.158;2024-03-06T00:42:14;99863.69;;;8.46;83.63
34177;BME280;20450;49.074;9.158;2024-03-06T00:44:42;99859.38;;;8.52;83.71
34177;BME280;20450;49.074;9.158;2024-03-06T00:47:09;99858.78;;;8.56;83.48
34177;BME280;20450;49.074;9.158;2024-03-06T00:49:36;99858.00;;;8.62;83.12
34177;BME280;20450;49.074;9.158;2024-03-06T00:52:03;99866.72;;;8.64;82.98
34177;BME280;20450;49.074;9.158;2024-03-06T00:54:30;99865.41;;;8.60;82.72
34177;BME280;20450;49.074;9.158;2024-03-06T00:56:57;99875.91;;;8.49;82.33
34177;BME280;20450;49.074;9.158;2024-03-06T00:59:26;99877.72;;;8.42;81.56
34177;BME280;20450;49.074;9.158;2024-03-06T01:01:53;99871.94;;;8.45;81.72
34177;BME280;20450;49.074;9.158;2024-03-06T01:04:20;99874.38;;;8.40;81.83
34177;BME280;20450;49.074;9.158;2024-03-06T01:06:47;99869.78;;;8.34;82.77
34177;BME280;20450;49.074;9.158;2024-03-06T01:09:14;99867.06;;;8.27;83.36
34177;BME280;20450;49.074;9.158;2024-03-06T01:11:41;99866.91;;;8.35;82.81
34177;BME280;20450;49.074;9.158;2024-03-06T01:14:08;99865.72;;;8.44;83.03
34177;BME280;20450;49.074;9.158;2024-03-06T01:16:36;99869.75;;;8.55;83.16
34177;BME280;20450;49.074;9.158;2024-03-06T01:19:03;99871.25;;;8.64;83.03
34177;BME280;20450;49.074;9.158;2024-03-06T01:21:30;99870.59;;;8.62;82.26
34177;BME280;20450;49.074;9.158;2024-03-06T01:23:57;99881.63;;;8.67;81.58
34177;BME280;20450;49.074;9.158;2024-03-06T01:26:24;99879.59;;;8.69;81.64
34177;BME280;20450;49.074;9.158;2024-03-06T01:28:51;99876.06;;;8.68;81.69
34177;BME280;20450;49.074;9.158;2024-03-06T01:31:18;99882.09;;;8.70;81.31
34177;BME280;20450;49.074;9.158;2024-03-06T01:33:46;99881.69;;;8.73;81.17
34177;BME280;20450;49.074;9.158;2024-03-06T01:36:13;99884.59;;;8.72;81.08
34177;BME280;20450;49.074;9.158;2024-03-06T01:38:40;99880.41;;;8.69;80.90
34177;BME280;20450;49.074;9.158;2024-03-06T01:41:07;99888.00;;;8.59;80.43
34177;BME280;20450;49.074;9.158;2024-03-06T01:43:37;99884.25;;;8.54;80.68
34177;BME280;20450;49.074;9.158;2024-03-06T01:46:05;99891.44;;;8.04;82.21
34177;BME280;20450;49.074;9.158;2024-03-06T01:48:32;99895.59;;;8.07;82.60
34177;BME280;20450;49.074;9.158;2024-03-06T01:51:02;99889.75;;;8.03;83.19
34177;BME280;20450;49.074;9.158;2024-03-06T01:53:32;99890.47;;;7.91;83.64
34177;BME280;20450;49.074;9.158;2024-03-06T01:56:02;99887.72;;;7.84;83.38
34177;BME280;20450;49.074;9.158;2024-03-06T01:58:31;99888.63;;;7.91;83.40
34177;BME280;20450;49.074;9.158;2024-03-06T02:01:01;99888.63;;;7.91;83.43
34177;BME280;20450;49.074;9.158;2024-03-06T02:03:31;99876.00;;;7.92;83.66
34177;BME280;20450;49.074;9.158;2024-03-06T02:06:02;99882.88;;;7.73;84.32
34177;BME280;20450;49.074;9.158;2024-03-06T02:08:29;99881.53;;;7.84;84.39
34177;BME280;20450;49.074;9.158;2024-03-06T02:10:58;99878.06;;;7.90;83.75
34177;BME280;20450;49.074;9.158;2024-03-06T02:13:26;99886.19;;;7.96;83.56
34177;BME280;20450;49.074;9.158;2024-03-06T02:15:53;99883.50;;;7.96;83.29
34177;BME280;20450;49.074;9.158;2024-03-06T02:18:20;99887.59;;;7.92;83.51
34177;BME280;20450;49.074;9.158;2024-03-06T02:20:48;99891.94;;;7.72;84.88
34177;BME280;20450;49.074;9.158;2024-03-06T02:23:15;99900.84;;;7.73;84.83
34177;BME280;20450;49.074;9.158;2024-03-06T02:25:44;99895.84;;;7.70;85.13
34177;BME280;20450;49.074;9.158;2024-03-06T02:28:11;99897.59;;;7.77;84.96
34177;BME280;20450;49.074;9.158;2024-03-06T02:30:38;99898.81;;;7.75;84.87
34177;BME280;20450;49.074;9.158;2024-03-06T02:33:05;99900.72;;;7.81;84.68
34177;BME280;20450;49.074;9.158;2024-03-06T02:35:32;99897.09;;;7.88;84.14
34177;BME280;20450;49.074;9.158;2024-03-06T02:38:02;99890.91;;;7.94;83.66
34177;BME280;20450;49.074;9.158;2024-03-06T02:40:30;99892.84;;;8.00;83.83
34177;BME280;20450;49.074;9.158;2024-03-06T02:42:57;99893.09;;;8.05;83.28
34177;BME280;20450;49.074;9.158;2024-03-06T02:45:24;99892.34;;;8.12;82.99
34177;BME280;20450;49.074;9.158;2024-03-06T02:47:51;99883.03;;;8.14;82.92
34177;BME280;20450;49.074;9.158;2024-03-06T02:50:18;99886.19;;;8.18;82.61
34177;BME280;20450;49.074;9.158;2024-03-06T02:52:45;99884.75;;;8.22;82.35
34177;BME280;20450;49.074;9.158;2024-03-06T02:55:14;99885.25;;;8.25;82.37
34177;BME280;20450;49.074;9.158;2024-03-06T02:57:42;99885.69;;;8.29;82.12
34177;BME280;20450;49.074;9.158;2024-03-06T03:00:10;99889.41;;;8.28;81.88
34177;BME280;20450;49.074;9.158;2024-03-06T03:02:38;99881.97;;;8.30;81.77
34177;BME280;20450;49.074;9.158;2024-03-06T03:05:06;99889.66;;;8.12;82.20
34177;BME280;20450;49.074;9.158;2024-03-06T03:07:33;99886.94;;;8.12;82.17
34177;BME280;20450;49.074;9.158;2024-03-06T03:10:01;99883.41;;;8.11;82.16
34177;BME280;20450;49.074;9.158;2024-03-06T03:12:29;99888.38;;;8.07;82.05
34177;BME280;20450;49.074;9.158;2024-03-06T03:14:56;99877.84;;;8.13;82.14
34177;BME280;20450;49.074;9.158;2024-03-06T03:17:23;99882.84;;;8.16;82.08
34177;BME280;20450;49.074;9.158;2024-03-06T03:19:50;99877.06;;;8.19;81.97
34177;BME280;20450;49.074;9.158;2024-03-06T03:22:17;99892.03;;;8.21;82.10
34177;BME280;20450;49.074;9.158;2024-03-06T03:24:44;99888.03;;;8.17;81.76
34177;BME280;20450;49.074;9.158;2024-03-06T03:27:11;99898.38;;;8.14;81.92
34177;BME280;20450;49.074;9.158;2024-03-06T03:29:40;99904.81;;;7.98;83.03
34177;BME280;20450;49.074;9.158;2024-03-06T03:32:07;99902.84;;;7.85;83.32
34177;BME280;20450;49.074;9.158;2024-03-06T03:34:35;99909.50;;;7.89;83.60
34177;BME280;20450;49.074;9.158;2024-03-06T03:37:02;99905.91;;;7.82;84.02
34177;BME280;20450;49.074;9.158;2024-03-06T03:39:29;99913.97;;;7.82;84.15
34177;BME280;20450;49.074;9.158;2024-03-06T03:41:57;99903.47;;;7.87;84.05
34177;BME280;20450;49.074;9.158;2024-03-06T03:44:25;99900.47;;;7.97;84.01
34177;BME280;20450;49.074;9.158;2024-03-06T03:46:54;99900.91;;;8.00;83.71
34177;BME280;20450;49.074;9.158;2024-03-06T03:49:21;99898.47;;;8.05;83.52
34177;BME280;20450;49.074;9.158;2024-03-06T03:51:48;99903.47;;;8.08;83.46
34177;BME280;20450;49.074;9.158;2024-03-06T03:54:15;99906.81;;;8.11;83.27
34177;BME280;20450;49.074;9.158;2024-03-06T03:56:42;99904.75;;;8.13;82.83
34177;BME280;20450;49.074;9.158;2024-03-06T03:59:10;99912.44;;;8.16;82.75
34177;BME280;20450;49.074;9.158;2024-03-06T04:01:37;99903.97;;;8.19;82.95
34177;BME280;20450;49.074;9.158;2024-03-06T04:04:08;99905.66;;;8.20;83.29
34177;BME280;20450;49.074;9.158;2024-03-06T04:06:35;99910.50;;;8.24;82.71
34177;BME280;20450;49.074;9.158;2024-03-06T04:09:03;99913.00;;;8.26;82.40
34177;BME280;20450;49.074;9.158;2024-03-06T04:11:30;99912.25;;;8.17;82.94
34177;BME280;20450;49.074;9.158;2024-03-06T04:13:57;99917.81;;;7.94;83.99
34177;BME280;20450;49.074;9.158;2024-03-06T04:16:24;99919.56;;;7.81;84.59
34177;BME280;20450;49.074;9.158;2024-03-06T04:18:51;99932.88;;;7.53;85.99
34177;BME280;20450;49.074;9.158;2024-03-06T04:21:21;99930.56;;;7.50;86.57
34177;BME280;20450;49.074;9.158;2024-03-06T04:23:48;99930.31;;;7.66;86.28
34177;BME280;20450;49.074;9.158;2024-03-06T04:26:15;99923.19;;;7.73;87.01
34177;BME280;20450;49.074;9.158;2024-03-06T04:28:42;99922.69;;;7.84;86.46
34177;BME280;20450;49.074;9.158;2024-03-06T04:31:09;99935.13;;;7.85;86.18
34177;BME280;20450;49.074;9.158;2024-03-06T04:33:37;99935.56;;;7.89;85.41
34177;BME280;20450;49.074;9.158;2024-03-06T04:36:06;99942.06;;;7.80;85.45
34177;BME280;20450;49.074;9.158;2024-03-06T04:38:34;99947.25;;;7.81;86.36
34177;BME280;20450;49.074;9.158;2024-03-06T04:41:01;99945.03;;;7.85;85.93
34177;BME280;20450;49.074;9.158;2024-03-06T04:43:28;99942.81;;;7.88;85.93
34177;BME280;20450;49.074;9.158;2024-03-06T04:45:55;99946.31;;;7.89;86.15
34177;BME280;20450;49.074;9.158;2024-03-06T04:48:23;99951.50;;;7.90;85.71
34177;BME280;20450;49.074;9.158;2024-03-06T04:50:51;99951.81;;;7.81;85.97
34177;BME280;20450;49.074;9.158;2024-03-06T04:53:18;99947.06;;;7.83;85.71
34177;BME280;20450;49.074;9.158;2024-03-06T04:55:46;99959.25;;;7.79;86.20
34177;BME280;20450;49.074;9.158;2024-03-06T04:58:13;99956.53;;;7.79;85.74
34177;BME280;20450;49.074;9.158;2024-03-06T05:00:40;99965.09;;;7.82;86.19
34177;BME280;20450;49.074;9.158;2024-03-06T05:03:07;99970.50;;;7.89;86.08
34177;BME280;20450;49.074;9.158;2024-03-06T05:05:52;99964.84;;;7.98;86.00
34177;BME280;20450;49.074;9.158;2024-03-06T05:08:37;99970.41;;;7.97;85.28
34177;BME280;20450;49.074;9.158;2024-03-06T05:11:23;99972.53;;;8.01;85.34
34177;BME280;20450;49.074;9.158;2024-03-06T05:14:08;99970.09;;;8.06;85.57
34177;BME280;20450;49.074;9.158;2024-03-06T05:16:53;99963.94;;;8.13;85.27
34177;BME280;20450;49.074;9.158;2024-03-06T05:19:38;99975.63;;;8.20;85.42
34177;BME280;20450;49.074;9.158;2024-03-06T05:22:33;99981.28;;;8.25;84.90
34177;BME280;20450;49.074;9.158;2024-03-06T05:25:18;99990.28;;;8.32;84.87
34177;BME280;20450;49.074;9.158;2024-03-06T05:28:02;99991.53;;;8.36;84.50
34177;BME280;20450;49.074;9.158;2024-03-06T05:30:47;99996.75;;;8.37;84.14
34177;BME280;20450;49.074;9.158;2024-03-06T05:33:35;99996.53;;;8.39;83.78
34177;BME280;20450;49.074;9.158;2024-03-06T05:36:20;99999.25;;;8.39;83.61
34177;BME280;20450;49.074;9.158;2024-03-06T05:39:06;99997.16;;;8.41;83.53
34177;BME280;20450;49.074;9.158;2024-03-06T05:41:51;99998.00;;;8.41;83.57
34177;BME280;20450;49.074;9.158;2024-03-06T05:44:36;100004.84;;;8.44;83.34
34177;BME280;20450;49.074;9.158;2024-03-06T05:47:21;100005.69;;;8.44;83.50
34177;BME280;20450;49.074;9.158;2024-03-06T05:50:06;100006.72;;;8.43;83.78
34177;BME280;20450;49.074;9.158;2024-03-06T05:52:51;100007.75;;;8.42;83.46
34177;BME280;20450;49.074;9.158;2024-03-06T05:55:37;100011.66;;;8.40;83.58
34177;BME280;20450;49.074;9.158;2024-03-06T05:58:22;100014.16;;;8.41;83.36
34177;BME280;20450;49.074;9.158;2024-03-06T06:00:49;100022.03;;;8.43;83.37
34177;BME280;20450;49.074;9.158;2024-03-06T06:03:16;100022.69;;;8.45;83.83
34177;BME280;20450;49.074;9.158;2024-03-06T06:05:46;100020.63;;;8.47;83.27
34177;BME280;20450;49.074;9.158;2024-03-06T06:08:13;100024.16;;;8.47;83.40
34177;BME280;20450;49.074;9.158;2024-03-06T06:10:41;100031.00;;;8.50;83.40
34177;BME280;20450;49.074;9.158;2024-03-06T06:13:08;100031.84;;;8.50;83.71
34177;BME280;20450;49.074;9.158;2024-03-06T06:15:35;100032.50;;;8.52;85.02
34177;BME280;20450;49.074;9.158;2024-03-06T06:18:02;100038.09;;;8.72;89.88
34177;BME280;20450;49.074;9.158;2024-03-06T06:20:30;100048.09;;;8.57;85.92
34177;BME280;20450;49.074;9.158;2024-03-06T06:22:57;100048.13;;;8.63;86.32
34177;BME280;20450;49.074;9.158;2024-03-06T06:25:24;100055.72;;;8.74;88.78
34177;BME280;20450;49.074;9.158;2024-03-06T06:27:54;100061.00;;;8.68;86.64
34177;BME280;20450;49.074;9.158;2024-03-06T06:30:20;100059.06;;;8.76;88.87
34177;BME280;20450;49.074;9.158;2024-03-06T06:32:47;100060.06;;;8.75;89.27
34177;BME280;20450;49.074;9.158;2024-03-06T06:35:15;100072.38;;;8.84;90.39
34177;BME280;20450;49.074;9.158;2024-03-06T06:37:41;100059.84;;;8.98;92.52
34177;BME280;20450;49.074;9.158;2024-03-06T06:40:09;100068.94;;;9.18;93.13
34177;BME280;20450;49.074;9.158;2024-03-06T06:42:37;100069.81;;;9.25;91.70
34177;BME280;20450;49.074;9.158;2024-03-06T06:45:08;100078.81;;;9.11;87.56
34177;BME280;20450;49.074;9.158;2024-03-06T06:47:35;100071.66;;;8.76;83.37
34177;BME280;20450;49.074;9.158;2024-03-06T06:50:03;100079.16;;;8.59;83.97
34177;BME280;20450;49.074;9.158;2024-03-06T06:52:30;100073.81;;;8.87;91.46
34177;BME280;20450;49.074;9.158;2024-03-06T06:54:57;100080.22;;;9.28;93.39
34177;BME280;20450;49.074;9.158;2024-03-06T06:57:24;100082.00;;;9.48;92.22
34177;BME280;20450;49.074;9.158;2024-03-06T06:59:52;100079.31;;;9.48;88.61
34177;BME280;20450;49.074;9.158;2024-03-06T07:02:21;100083.06;;;9.54;88.10
34177;BME280;20450;49.074;9.158;2024-03-06T07:04:48;100083.56;;;9.64;88.98
34177;BME280;20450;49.074;9.158;2024-03-06T07:07:15;100082.59;;;9.71;87.79
34177;BME280;20450;49.074;9.158;2024-03-06T07:09:42;100089.06;;;9.83;87.51
34177;BME280;20450;49.074;9.158;2024-03-06T07:12:09;100086.41;;;9.90;86.49
34177;BME280;20450;49.074;9.158;2024-03-06T07:14:36;100090.16;;;9.95;85.98
34177;BME280;20450;49.074;9.158;2024-03-06T07:17:03;100085.38;;;9.91;84.27
34177;BME280;20450;49.074;9.158;2024-03-06T07:19:32;100095.56;;;9.95;84.67
34177;BME280;20450;49.074;9.158;2024-03-06T07:21:59;100100.16;;;9.95;84.48
34177;BME280;20450;49.074;9.158;2024-03-06T07:24:27;100094.91;;;9.87;82.79
34177;BME280;20450;49.074;9.158;2024-03-06T07:26:54;100096.56;;;9.88;82.87
34177;BME280;20450;49.074;9.158;2024-03-06T07:29:21;100097.13;;;9.77;81.89
34177;BME280;20450;49.074;9.158;2024-03-06T07:31:48;100107.16;;;9.89;84.76
34177;BME280;20450;49.074;9.158;2024-03-06T07:34:15;100102.19;;;9.93;83.21
34177;BME280;20450;49.074;9.158;2024-03-06T07:36:43;100101.34;;;9.86;82.37
34177;BME280;20450;49.074;9.158;2024-03-06T07:39:10;100105.66;;;9.80;81.59
34177;BME280;20450;49.074;9.158;2024-03-06T07:41:37;100108.56;;;9.79;81.62
34177;BME280;20450;49.074;9.158;2024-03-06T07:44:04;100110.81;;;9.75;81.99
34177;BME280;20450;49.074;9.158;2024-03-06T07:46:32;100117.84;;;9.70;82.25
34177;BME280;20450;49.074;9.158;2024-03-06T07:48:59;100113.47;;;9.69;81.19
34177;BME280;20450;49.074;9.158;2024-03-06T07:51:26;100117.75;;;9.57;80.13
34177;BME280;20450;49.074;9.158;2024-03-06T07:53:55;100123.78;;;9.59;82.17
34177;BME280;20450;49.074;9.158;2024-03-06T07:56:22;100127.81;;;9.69;81.89
34177;BME280;20450;49.074;9.158;2024-03-06T07:58:50;100127.81;;;9.69;81.09
34177;BME280;20450;49.074;9.158;2024-03-06T08:01:18;100119.03;;;9.61;80.05
34177;BME280;20450;49.074;9.158;2024-03-06T08:03:45;100133.59;;;9.66;81.17
34177;BME280;20450;49.074;9.158;2024-03-06T08:06:12;100129.19;;;9.59;81.03
34177;BME280;20450;49.074;9.158;2024-03-06T08:08:40;100135.25;;;9.67;82.92
34177;BME280;20450;49.074;9.158;2024-03-06T08:11:10;100129.47;;;9.70;81.27
34177;BME280;20450;49.074;9.158;2024-03-06T08:13:38;100133.28;;;9.82;81.63
34177;BME280;20450;49.074;9.158;2024-03-06T08:16:06;100141.63;;;9.87;80.32
34177;BME280;20450;49.074;9.158;2024-03-06T08:18:36;100135.13;;;9.82;80.65
34177;BME280;20450;49.074;9.158;2024-03-06T08:21:04;100138.03;;;9.80;80.43
34177;BME280;20450;49.074;9.158;2024-03-06T08:23:31;100140.31;;;9.83;80.75
34177;BME280;20450;49.074;9.158;2024-03-06T08:25:58;100136.88;;;9.96;82.65
34177;BME280;20450;49.074;9.158;2024-03-06T08:28:27;100141.03;;;9.98;81.23
34177;BME280;20450;49.074;9.158;2024-03-06T08:30:54;100142.75;;;10.06;81.44
34177;BME280;20450;49.074;9.158;2024-03-06T08:33:21;100144.28;;;10.15;81.81
34177;BME280;20450;49.074;9.158;2024-03-06T08:35:48;100148.28;;;10.19;81.27
34177;BME280;20450;49.074;9.158;2024-03-06T08:38:15;100145.97;;;10.16;80.62
34177;BME280;20450;49.074;9.158;2024-03-06T08:40:42;100144.94;;;10.17;80.22
34177;BME280;20450;49.074;9.158;2024-03-06T08:43:11;100153.03;;;10.17;80.70
34177;BME280;20450;49.074;9.158;2024-03-06T08:45:40;100150.09;;;10.12;80.07
34177;BME280;20450;49.074;9.158;2024-03-06T08:48:07;100141.78;;;10.07;79.94
34177;BME280;20450;49.074;9.158;2024-03-06T08:50:35;100158.44;;;10.17;79.53
34177;BME280;20450;49.074;9.158;2024-03-06T08:53:03;100156.97;;;10.15;79.06
34177;BME280;20450;49.074;9.158;2024-03-06T08:55:30;100151.03;;;10.32;80.80
34177;BME280;20450;49.074;9.158;2024-03-06T08:58:00;100152.69;;;10.27;78.21
34177;BME280;20450;49.074;9.158;2024-03-06T09:00:27;100157.13;;;10.47;79.40
34177;BME280;20450;49.074;9.158;2024-03-06T09:02:55;100153.78;;;10.45;77.22
34177;BME280;20450;49.074;9.158;2024-03-06T09:05:22;100159.19;;;10.45;78.20
34177;BME280;20450;49.074;9.158;2024-03-06T09:07:50;100157.13;;;10.47;78.68
34177;BME280;20450;49.074;9.158;2024-03-06T09:10:17;100157.31;;;10.52;78.40
34177;BME280;20450;49.074;9.158;2024-03-06T09:12:44;100153.41;;;10.61;78.83
34177;BME280;20450;49.074;9.158;2024-03-06T09:15:11;100152.81;;;10.59;78.13
34177;BME280;20450;49.074;9.158;2024-03-06T09:17:39;100153.84;;;10.65;78.22
34177;BME280;20450;49.074;9.158;2024-03-06T09:20:08;100157.81;;;10.69;77.58
34177;BME280;20450;49.074;9.158;2024-03-06T09:22:36;100152.84;;;10.72;77.27
34177;BME280;20450;49.074;9.158;2024-03-06T09:25:05;100158.03;;;10.74;77.73
34177;BME280;20450;49.074;9.158;2024-03-06T09:27:33;100150.53;;;10.69;78.09
34177;BME280;20450;49.074;9.158;2024-03-06T09:30:01;100161.56;;;10.74;77.76
34177;BME280;20450;49.074;9.158;2024-03-06T09:32:30;100164.69;;;10.78;77.57
34177;BME280;20450;49.074;9.158;2024-03-06T09:34:58;100166.56;;;10.77;77.40
34177;BME280;20450;49.074;9.158;2024-03-06T09:37:27;100174.88;;;10.76;77.83
34177;BME280;20450;49.074;9.158;2024-03-06T09:39:55;100177.75;;;10.68;78.27
34177;BME280;20450;49.074;9.158;2024-03-06T09:42:22;100175.25;;;10.66;78.45
34177;BME280;20450;49.074;9.158;2024-03-06T09:44:49;100177.75;;;10.74;78.24
34177;BME280;20450;49.074;9.158;2024-03-06T09:47:21;100181.63;;;10.52;77.85
34177;BME280;20450;49.074;9.158;2024-03-06T09:49:50;100181.28;;;10.62;78.49
34177;BME280;20450;49.074;9.158;2024-03-06T09:52:18;100175.50;;;10.71;78.80
34177;BME280;20450;49.074;9.158;2024-03-06T09:54:47;100185.25;;;10.79;78.17
34177;BME280;20450;49.074;9.158;2024-03-06T09:57:17;100177.03;;;10.93;77.56
34177;BME280;20450;49.074;9.158;2024-03-06T09:59:45;100175.38;;;11.12;78.21
34177;BME280;20450;49.074;9.158;2024-03-06T10:02:19;100184.75;;;11.22;76.18
34177;BME280;20450;49.074;9.158;2024-03-06T10:04:57;100171.66;;;11.19;76.24
34177;BME280;20450;49.074;9.158;2024-03-06T10:07:25;100182.88;;;11.16;77.32
34177;BME280;20450;49.074;9.158;2024-03-06T10:09:53;100183.50;;;11.25;77.58
34177;BME280;20450;49.074;9.158;2024-03-06T10:12:22;100182.66;;;11.05;75.98
34177;BME280;20450;49.074;9.158;2024-03-06T10:14:51;100179.56;;;11.14;76.59
34177;BME280;20450;49.074;9.158;2024-03-06T10:17:19;100187.88;;;11.13;77.60
34177;BME280;20450;49.074;9.158;2024-03-06T10:19:47;100186.00;;;11.13;77.64
34177;BME280;20450;49.074;9.158;2024-03-06T10:22:15;100188.91;;;11.18;77.34
34177;BME280;20450;49.074;9.158;2024-03-06T10:24:42;100184.56;;;11.24;77.44
34177;BME280;20450;49.074;9.158;2024-03-06T10:27:14;100185.78;;;11.28;76.79
34177;BME280;20450;49.074;9.158;2024-03-06T10:29:44;100183.72;;;11.30;77.49
34177;BME280;20450;49.074;9.158;2024-03-06T10:32:16;100184.56;;;11.30;76.66
34177;BME280;20450;49.074;9.158;2024-03-06T10:34:45;100187.47;;;11.35;76.85
34177;BME280;20450;49.074;9.158;2024-03-06T10:37:12;100185.41;;;11.37;76.56
34177;BME280;20450;49.074;9.158;2024-03-06T10:39:42;100186.63;;;11.15;77.01
34177;BME280;20450;49.074;9.158;2024-03-06T10:42:12;100191.59;;;11.12;77.08
34177;BME280;20450;49.074;9.158;2024-03-06T10:44:47;100201.00;;;11.16;78.31
34177;BME280;20450;49.074;9.158;2024-03-06T10:47:20;100198.69;;;11.13;77.83
34177;BME280;20450;49.074;9.158;2024-03-06T10:49:49;100195.16;;;11.12;78.65
34177;BME280;20450;49.074;9.158;2024-03-06T10:52:19;100199.91;;;11.10;78.59
34177;BME280;20450;49.074;9.158;2024-03-06T10:54:46;100197.84;;;11.12;78.03
34177;BME280;20450;49.074;9.158;2024-03-06T10:57:16;100202.84;;;11.15;77.93
34177;BME280;20450;49.074;9.158;2024-03-06T10:59:46;100201.19;;;11.14;78.04
34177;BME280;20450;49.074;9.158;2024-03-06T11:02:13;100204.94;;;11.20;78.49
34177;BME280;20450;49.074;9.158;2024-03-06T11:04:42;100196.63;;;11.21;77.69
34177;BME280;20450;49.074;9.158;2024-03-06T11:07:10;100199.13;;;11.29;77.13
34177;BME280;20450;49.074;9.158;2024-03-06T11:09:41;100201.63;;;11.37;77.71
34177;BME280;20450;49.074;9.158;2024-03-06T11:12:08;100201.66;;;11.44;77.77
34177;BME280;20450;49.074;9.158;2024-03-06T11:14:39;100197.09;;;11.57;77.56
34177;BME280;20450;49.074;9.158;2024-03-06T11:17:09;100198.94;;;11.50;76.33
34177;BME280;20450;49.074;9.158;2024-03-06T11:20:20;100197.03;;;11.31;77.14
34177;BME280;20450;49.074;9.158;2024-03-06T11:23:04;100197.88;;;11.19;76.70
34177;BME280;20450;49.074;9.158;2024-03-06T11:25:57;100193.72;;;11.23;77.70
34177;BME280;20450;49.074;9.158;2024-03-06T11:28:31;100196.22;;;11.37;79.00
34177;BME280;20450;49.074;9.158;2024-03-06T11:31:01;100194.75;;;11.41;77.03
34177;BME280;20450;49.074;9.158;2024-03-06T11:33:35;100199.13;;;11.36;77.36
34177;BME280;20450;49.074;9.158;2024-03-06T11:36:19;100199.97;;;11.36;76.62
34177;BME280;20450;49.074;9.158;2024-03-06T11:38:50;100197.03;;;11.25;76.43
34177;BME280;20450;49.074;9.158;2024-03-06T11:41:18;100199.53;;;11.20;77.84
34177;BME280;20450;49.074;9.158;2024-03-06T11:43:48;100199.31;;;11.28;78.15
34177;BME280;20450;49.074;9.158;2024-03-06T11:46:17;100206.00;;;11.32;78.55
34177;BME280;20450;49.074;9.158;2024-03-06T11:48:51;100196.63;;;11.34;78.14
34177;BME280;20450;49.074;9.158;2024-03-06T11:51:19;100207.03;;;11.31;78.31
34177;BME280;20450;49.074;9.158;2024-03-06T11:53:49;100193.72;;;11.23;78.14
34177;BME280;20450;49.074;9.158;2024-03-06T11:56:17;100194.13;;;11.33;79.10
34177;BME280;20450;49.074;9.158;2024-03-06T11:58:45;100198.50;;;11.34;78.30
34177;BME280;20450;49.074;9.158;2024-03-06T12:01:15;100193.31;;;11.26;77.71
34177;BME280;20450;49.074;9.158;2024-03-06T12:03:44;100196.63;;;11.28;77.86
34177;BME280;20450;49.074;9.158;2024-03-06T12:06:13;100199.13;;;11.29;78.00
34177;BME280;20450;49.074;9.158;2024-03-06T12:08:41;100201.38;;;11.19;78.24
34177;BME280;20450;49.074;9.158;2024-03-06T12:11:08;100195.38;;;11.17;78.94
34177;BME280;20450;49.074;9.158;2024-03-06T12:13:35;100197.81;;;11.06;78.19
34177;BME280;20450;49.074;9.158;2024-03-06T12:16:06;100201.53;;;10.98;78.17
34177;BME280;20450;49.074;9.158;2024-03-06T12:18:34;100191.97;;;10.96;78.66
34177;BME280;20450;49.074;9.158;2024-03-06T12:21:04;100204.03;;;11.00;79.39
34177;BME280;20450;49.074;9.158;2024-03-06T12:23:31;100200.31;;;10.94;79.45
34177;BME280;20450;49.074;9.158;2024-03-06T12:26:06;100199.81;;;10.71;79.82
34177;BME280;20450;49.074;9.158;2024-03-06T12:28:34;100205.84;;;10.67;79.69
34177;BME280;20450;49.074;9.158;2024-03-06T12:31:02;100202.03;;;10.61;80.37
34177;BME280;20450;49.074;9.158;2024-03-06T12:33:30;100203.94;;;10.61;80.45
34177;BME280;20450;49.074;9.158;2024-03-06T12:36:03;100201.22;;;10.61;81.12
34177;BME280;20450;49.074;9.158;2024-03-06T12:38:32;100196.44;;;10.63;81.10
34177;BME280;20450;49.074;9.158;2024-03-06T12:41:00;100203.72;;;10.62;81.36
34177;BME280;20450;49.074;9.158;2024-03-06T12:43:27;100203.28;;;10.59;81.69
34177;BME280;20450;49.074;9.158;2024-03-06T12:45:54;100208.72;;;10.65;81.66
34177;BME280;20450;49.074;9.158;2024-03-06T12:48:21;100202.78;;;10.42;82.54
34177;BME280;20450;49.074;9.158;2024-03-06T12:50:49;100211.75;;;10.49;82.92
34177;BME280;20450;49.074;9.158;2024-03-06T12:53:18;100210.94;;;10.55;82.53
34177;BME280;20450;49.074;9.158;2024-03-06T12:55:45;100203.88;;;10.54;82.86
34177;BME280;20450;49.074;9.158;2024-03-06T12:58:13;100207.00;;;10.51;82.76
34177;BME280;20450;49.074;9.158;2024-03-06T13:00:40;100205.53;;;10.55;82.71
34177;BME280;20450;49.074;9.158;2024-03-06T13:03:08;100206.78;;;10.53;82.29
34177;BME280;20450;49.074;9.158;2024-03-06T13:05:35;100197.44;;;10.49;83.80
34177;BME280;20450;49.074;9.158;2024-03-06T13:08:04;100197.00;;;10.45;83.09
34177;BME280;20450;49.074;9.158;2024-03-06T13:10:39;100199.44;;;10.40;83.60